Time,TemperatureF,DewpointF,PressureIn,WindDirection,WindDirectionDegrees,WindSpeedMPH,WindSpeedGustMPH,Humidity,HourlyPrecipIn,Conditions,Clouds,dailyrainin,SoftwareType,DateUTC
2013-10-17 00:13:00,54.5,53.0,29.92,West,270,2.0,9.0,96,0.00,,,0.00,weatherlink.com 1.10,2013-10-17 04:13:00,
2013-10-17 00:28:00,54.4,53.0,29.91,NNW,338,4.0,7.0,95,0.00,,,0.00,weatherlink.com 1.10,2013-10-17 04:28:00,
2013-10-17 00:43:00,54.4,53.0,29.91,NW,309,6.0,7.0,96,0.00,,,0.00,weatherlink.com 1.10,2013-10-17 04:43:00,
2013-10-17 00:58:00,54.4,53.0,29.91,NW,311,5.0,7.0,96,0.00,,,0.00,weatherlink.com 1.10,2013-10-17 04:58:00,
2013-10-17 01:13:00,54.4,53.0,29.91,WNW,284,6.0,6.0,96,0.00,,,0.00,weatherlink.com 1.10,2013-10-17 05:13:00,
2013-10-17 01:28:00,54.5,53.0,29.90,WNW,287,2.0,5.0,96,0.00,,,0.00,weatherlink.com 1.10,2013-10-17 05:28:00,
2013-10-17 01:43:00,54.6,53.0,29.89,NW,321,4.0,5.0,95,0.00,,,0.00,weatherlink.com 1.10,2013-10-17 05:43:00,
2013-10-17 01:58:00,54.9,53.0,29.89,WNW,294,5.0,6.0,94,0.00,,,0.00,weatherlink.com 1.10,2013-10-17 05:58:00,
2013-10-17 02:28:00,54.9,53.0,29.89,West,263,0.0,5.0,94,0.00,,,0.00,weatherlink.com 1.10,2013-10-17 06:28:00,
2013-10-17 02:43:00,54.9,53.0,29.88,West,275,0.0,1.0,94,0.00,,,0.00,weatherlink.com 1.10,2013-10-17 06:43:00,
2013-10-17 02:58:00,54.9,54.0,29.89,West,279,1.0,2.0,95,0.00,,,0.00,weatherlink.com 1.10,2013-10-17 06:58:00,
2013-10-17 03:13:00,55.1,54.0,29.89,West,278,2.0,5.0,94,0.00,,,0.00,weatherlink.com 1.10,2013-10-17 07:13:00,
2013-10-17 03:28:00,55.1,54.0,29.88,West,267,1.0,5.0,94,0.00,,,0.00,weatherlink.com 1.10,2013-10-17 07:28:00,
2013-10-17 03:43:00,55.0,53.0,29.87,SW,225,0.0,2.0,94,0.00,,,0.00,weatherlink.com 1.10,2013-10-17 07:43:00,
2013-10-17 03:58:00,55.1,54.0,29.88,West,259,2.0,6.0,95,0.00,,,0.00,weatherlink.com 1.10,2013-10-17 07:58:00,
2013-10-17 04:13:00,55.2,54.0,29.87,West,260,1.0,6.0,95,0.00,,,0.00,weatherlink.com 1.10,2013-10-17 08:13:00,
2013-10-17 04:28:00,55.1,54.0,29.86,WNW,284,4.0,6.0,94,0.00,,,0.00,weatherlink.com 1.10,2013-10-17 08:28:00,
2013-10-17 04:43:00,55.0,53.0,29.86,SSW,202,1.0,6.0,94,0.00,,,0.00,weatherlink.com 1.10,2013-10-17 08:43:00,
2013-10-17 04:58:00,54.8,53.0,29.86,WSW,246,1.0,9.0,95,0.00,,,0.00,weatherlink.com 1.10,2013-10-17 08:58:00,
2013-10-17 05:13:00,54.4,53.0,29.86,SW,227,7.0,10.0,94,0.00,,,0.00,weatherlink.com 1.10,2013-10-17 09:13:00,
2013-10-17 05:28:00,54.3,53.0,29.85,SW,229,3.0,5.0,95,0.00,,,0.00,weatherlink.com 1.10,2013-10-17 09:28:00,
2013-10-17 05:43:00,54.0,53.0,29.85,SW,214,5.0,5.0,95,0.00,,,0.00,weatherlink.com 1.10,2013-10-17 09:43:00,
2013-10-17 05:58:00,54.0,53.0,29.84,SE,145,1.0,8.0,96,0.00,,,0.00,weatherlink.com 1.10,2013-10-17 09:58:00,
2013-10-17 06:13:00,53.8,53.0,29.85,SSW,202,5.0,9.0,96,0.00,,,0.00,weatherlink.com 1.10,2013-10-17 10:13:00,
2013-10-17 06:28:00,53.5,52.0,29.84,West,273,0.0,9.0,96,0.00,,,0.00,weatherlink.com 1.10,2013-10-17 10:28:00,
2013-10-17 06:43:00,53.5,53.0,29.84,SSW,195,4.0,10.0,97,0.00,,,0.00,weatherlink.com 1.10,2013-10-17 10:43:00,
2013-10-17 06:58:00,53.6,53.0,29.84,WSW,257,1.0,8.0,97,0.00,,,0.00,weatherlink.com 1.10,2013-10-17 10:58:00,
2013-10-17 07:14:00,53.6,53.0,29.85,SW,229,0.0,12.0,97,0.00,,,0.00,weatherlink.com 1.10,2013-10-17 11:14:00,
2013-10-17 07:29:00,53.6,53.0,29.85,WSW,255,0.0,8.0,97,0.00,,,0.00,weatherlink.com 1.10,2013-10-17 11:29:00,
2013-10-17 07:44:00,53.5,53.0,29.85,SE,144,2.0,8.0,97,0.00,,,0.00,weatherlink.com 1.10,2013-10-17 11:44:00,
2013-10-17 07:59:00,53.6,53.0,29.86,West,276,2.0,11.0,97,0.00,,,0.00,weatherlink.com 1.10,2013-10-17 11:59:00,
2013-10-17 08:14:00,53.6,53.0,29.85,SW,222,4.0,9.0,97,0.00,,,0.00,weatherlink.com 1.10,2013-10-17 12:14:00,
2013-10-17 08:29:00,53.9,53.0,29.86,West,273,2.0,8.0,97,0.00,,,0.00,weatherlink.com 1.10,2013-10-17 12:29:00,
2013-10-17 08:44:00,54.1,53.0,29.86,SW,230,4.0,11.0,97,0.00,,,0.00,weatherlink.com 1.10,2013-10-17 12:44:00,
2013-10-17 08:59:00,54.3,54.0,29.85,SSW,211,1.0,9.0,97,0.00,,,0.00,weatherlink.com 1.10,2013-10-17 12:59:00,
2013-10-17 09:14:00,54.6,54.0,29.85,WSW,245,2.0,8.0,97,0.00,,,0.00,weatherlink.com 1.10,2013-10-17 13:14:00,
2013-10-17 09:29:00,54.8,54.0,29.84,WSW,250,6.0,10.0,97,0.00,,,0.00,weatherlink.com 1.10,2013-10-17 13:29:00,
2013-10-17 09:44:00,55.1,55.0,29.84,WSW,250,2.0,8.0,98,0.00,,,0.00,weatherlink.com 1.10,2013-10-17 13:44:00,
2013-10-17 09:59:00,55.2,54.0,29.84,West,263,4.0,7.0,97,0.00,,,0.00,weatherlink.com 1.10,2013-10-17 13:59:00,
2013-10-17 10:14:00,55.3,55.0,29.84,SSW,203,4.0,10.0,97,0.00,,,0.00,weatherlink.com 1.10,2013-10-17 14:14:00,
2013-10-17 10:29:00,55.5,55.0,29.84,WSW,257,7.0,10.0,97,0.00,,,0.00,weatherlink.com 1.10,2013-10-17 14:29:00,
2013-10-17 10:44:00,55.7,55.0,29.84,SW,236,2.0,9.0,97,0.00,,,0.00,weatherlink.com 1.10,2013-10-17 14:44:00,
2013-10-17 10:59:00,55.8,55.0,29.84,SSW,211,0.0,7.0,97,0.00,,,0.00,weatherlink.com 1.10,2013-10-17 14:59:00,
2013-10-17 11:14:00,56.0,55.0,29.83,West,259,2.0,7.0,97,0.00,,,0.00,weatherlink.com 1.10,2013-10-17 15:14:00,
2013-10-17 11:29:00,55.9,55.0,29.84,WSW,246,2.0,9.0,96,0.00,,,0.00,weatherlink.com 1.10,2013-10-17 15:29:00,
2013-10-17 11:44:00,56.3,55.0,29.83,WSW,252,5.0,7.0,96,0.00,,,0.00,weatherlink.com 1.10,2013-10-17 15:44:00,
2013-10-17 11:59:00,56.7,56.0,29.82,WSW,252,1.0,7.0,96,0.00,,,0.00,weatherlink.com 1.10,2013-10-17 15:59:00,
2013-10-17 12:14:00,56.9,56.0,29.82,West,281,1.0,8.0,95,0.00,,,0.00,weatherlink.com 1.10,2013-10-17 16:14:00,
2013-10-17 12:29:00,57.0,55.0,29.82,West,260,4.0,6.0,94,0.00,,,0.00,weatherlink.com 1.10,2013-10-17 16:29:00,
2013-10-17 12:44:00,56.7,55.0,29.81,West,267,1.0,7.0,95,0.00,,,0.00,weatherlink.com 1.10,2013-10-17 16:44:00,
2013-10-17 12:59:00,56.8,55.0,29.80,SW,233,6.0,7.0,94,0.00,,,0.00,weatherlink.com 1.10,2013-10-17 16:59:00,
2013-10-17 13:14:00,57.2,56.0,29.79,WNW,291,2.0,6.0,94,0.00,,,0.00,weatherlink.com 1.10,2013-10-17 17:14:00,
2013-10-17 13:44:00,58.0,56.0,29.78,West,273,5.0,7.0,92,0.00,,,0.00,weatherlink.com 1.10,2013-10-17 17:44:00,
2013-10-17 13:59:00,58.0,56.0,29.78,West,263,6.0,8.0,92,0.00,,,0.00,weatherlink.com 1.10,2013-10-17 17:59:00,
2013-10-17 14:14:00,58.4,56.0,29.78,WSW,249,4.0,7.0,92,0.00,,,0.00,weatherlink.com 1.10,2013-10-17 18:14:00,
2013-10-17 14:29:00,58.9,56.0,29.78,SW,227,4.0,8.0,91,0.00,,,0.00,weatherlink.com 1.10,2013-10-17 18:29:00,
2013-10-17 14:44:00,57.4,55.0,29.79,West,259,5.0,10.0,92,0.00,,,0.00,weatherlink.com 1.10,2013-10-17 18:44:00,
2013-10-17 14:59:00,56.7,55.0,29.79,WSW,254,2.0,9.0,94,0.00,,,0.00,weatherlink.com 1.10,2013-10-17 18:59:00,
2013-10-17 15:29:00,56.2,55.0,29.78,West,277,4.0,7.0,95,0.00,,,0.00,weatherlink.com 1.10,2013-10-17 19:29:00,
2013-10-17 15:44:00,56.0,55.0,29.78,West,267,2.0,6.0,95,0.00,,,0.00,weatherlink.com 1.10,2013-10-17 19:44:00,
2013-10-17 15:59:00,56.2,55.0,29.78,SW,217,3.0,7.0,95,0.00,,,0.00,weatherlink.com 1.10,2013-10-17 19:59:00,
2013-10-17 16:14:00,57.3,56.0,29.78,SSW,210,0.0,5.0,94,0.00,,,0.00,weatherlink.com 1.10,2013-10-17 20:14:00,
2013-10-17 16:29:00,57.5,56.0,29.78,SW,236,1.0,6.0,93,0.00,,,0.00,weatherlink.com 1.10,2013-10-17 20:29:00,
2013-10-17 16:44:00,58.1,56.0,29.78,West,278,4.0,6.0,92,0.00,,,0.00,weatherlink.com 1.10,2013-10-17 20:44:00,
2013-10-17 16:59:00,59.6,57.0,29.78,West,263,0.0,5.0,91,0.00,,,0.00,weatherlink.com 1.10,2013-10-17 20:59:00,
2013-10-17 17:14:00,61.7,58.0,29.77,SSW,213,0.0,2.0,86,0.00,,,0.00,weatherlink.com 1.10,2013-10-17 21:14:00,
2013-10-17 17:29:00,60.9,57.0,29.77,South,188,1.0,5.0,86,0.00,,,0.00,weatherlink.com 1.10,2013-10-17 21:29:00,
2013-10-17 17:44:00,59.4,56.0,29.77,SW,221,0.0,1.0,88,0.00,,,0.00,weatherlink.com 1.10,2013-10-17 21:44:00,
2013-10-17 17:59:00,57.7,55.0,29.77,SW,221,0.0,1.0,90,0.00,,,0.00,weatherlink.com 1.10,2013-10-17 21:59:00,
2013-10-17 18:14:00,56.3,54.0,29.77,SE,140,0.0,1.0,92,0.00,,,0.00,weatherlink.com 1.10,2013-10-17 22:14:00,
2013-10-17 18:29:00,55.6,54.0,29.78,SSE,149,1.0,2.0,94,0.00,,,0.00,weatherlink.com 1.10,2013-10-17 22:29:00,
2013-10-17 18:44:00,54.8,53.0,29.78,SE,131,0.0,1.0,94,0.00,,,0.00,weatherlink.com 1.10,2013-10-17 22:44:00,
2013-10-17 18:59:00,54.3,53.0,29.79,SE,137,1.0,1.0,95,0.00,,,0.00,weatherlink.com 1.10,2013-10-17 22:59:00,
2013-10-17 19:14:00,53.7,52.0,29.79,SSE,155,1.0,1.0,95,0.00,,,0.00,weatherlink.com 1.10,2013-10-17 23:14:00,
2013-10-17 19:29:00,53.2,52.0,29.79,SSE,154,0.0,0.0,95,0.00,,,0.00,weatherlink.com 1.10,2013-10-17 23:29:00,
2013-10-17 19:44:00,53.0,52.0,29.79,SSE,155,0.0,0.0,96,0.00,,,0.00,weatherlink.com 1.10,2013-10-17 23:44:00,
2013-10-17 19:59:00,52.8,52.0,29.79,SSE,153,0.0,0.0,96,0.00,,,0.00,weatherlink.com 1.10,2013-10-17 23:59:00,
2013-10-17 20:14:00,52.1,51.0,29.79,ESE,119,0.0,0.0,96,0.00,,,0.00,weatherlink.com 1.10,2013-10-18 00:14:00,
2013-10-17 20:29:00,51.5,50.0,29.79,ESE,119,0.0,0.0,96,0.00,,,0.00,weatherlink.com 1.10,2013-10-18 00:29:00,
2013-10-17 20:44:00,51.2,50.0,29.80,SSE,160,0.0,0.0,96,0.00,,,0.00,weatherlink.com 1.10,2013-10-18 00:44:00,
2013-10-17 21:00:00,50.6,50.0,29.79,SSE,160,0.0,0.0,96,0.00,,,0.00,weatherlink.com 1.10,2013-10-18 01:00:00,
2013-10-17 21:15:00,50.0,49.0,29.79,SSE,160,0.0,0.0,96,0.00,,,0.00,weatherlink.com 1.10,2013-10-18 01:15:00,
2013-10-17 21:30:00,50.9,50.0,29.79,SE,126,0.0,0.0,97,0.00,,,0.00,weatherlink.com 1.10,2013-10-18 01:30:00,
2013-10-17 21:45:00,50.8,50.0,29.79,NNE,31,0.0,1.0,97,0.00,,,0.00,weatherlink.com 1.10,2013-10-18 01:45:00,
2013-10-17 22:00:00,50.6,50.0,29.78,ENE,67,0.0,1.0,97,0.00,,,0.00,weatherlink.com 1.10,2013-10-18 02:00:00,
2013-10-17 22:15:00,50.6,50.0,29.78,NE,40,5.0,5.0,97,0.00,,,0.00,weatherlink.com 1.10,2013-10-18 02:15:00,
2013-10-17 22:30:00,50.8,50.0,29.77,NE,50,0.0,4.0,97,0.00,,,0.00,weatherlink.com 1.10,2013-10-18 02:30:00,
2013-10-17 22:45:00,51.0,50.0,29.77,NE,55,2.0,4.0,97,0.00,,,0.00,weatherlink.com 1.10,2013-10-18 02:45:00,
2013-10-17 23:00:00,51.3,51.0,29.78,NE,48,1.0,4.0,97,0.00,,,0.00,weatherlink.com 1.10,2013-10-18 03:00:00,
2013-10-17 23:15:00,51.5,51.0,29.77,NE,38,0.0,2.0,97,0.00,,,0.00,weatherlink.com 1.10,2013-10-18 03:15:00,
2013-10-17 23:30:00,51.8,51.0,29.75,East,84,0.0,1.0,98,0.00,,,0.00,weatherlink.com 1.10,2013-10-18 03:30:00,
2013-10-17 23:45:00,52.1,52.0,29.75,East,95,0.0,1.0,98,0.00,,,0.00,weatherlink.com 1.10,2013-10-18 03:45:00,